Malmedy, Belgium
Current Conditions -  °F | °C
As of 12:23 PM on Sunday 21 Dec 2014 (Local Time) from EBLB Reporting Station
Broken Clouds Broken Clouds  
Wind Chill: 31°   Ceiling: 3000
Heat Index: 37°   Visibility: 6mi
Dew Point: 36°   Wind: 9mph
Humidity: 93%   Direction: 230°SW
Pressure: 30.39"   Gusts: NA
Location:  50.43°N, 6.03°E
Report Text: EBLB 211123Z AUTO 23008KT 9999 SCT024/// BKN030/// 03/02 Q1029 WHT
Loading
Personal Weather Stations






























Interactive Weather Map New forecast layout! Learn more

10-Day Weather Forecast

Advertisements
Track Severe Weather on mobile